Main page
METAR-TAF:

METAR-TAF

Airports :

Beijing Capital International Airport

Beijing, China

latitude: 39-56N, longitude: 116-17E, elevation: 55 m

Current weather observation

The report was made 30 minutes ago, at 13:00 UTC
Wind 2 kt from variable directions
Temperature 12°C
Humidity 82%
Pressure 1013 hPa
Visibility: 8000 m

METAR: ZBAA 201300Z VRB01MPS 8000 NSC 12/09 Q1013 NOSIG

Time: 21:30 (13:30 UTC)

Forecast

The report was made 4 hours and 10 minutes ago, at 09:20 UTC
Forecast valid from 20 at 12 UTC to 21 at 12 UTC
Wind 8 kt from the South/Southeast
Visibility 10 km or more
no clouds below 1500 m and no cumulonimbus

TAF: ZBAA 200920Z 2012/2112 15004MPS CAVOK TX22/2107Z TN05/2021Z

Weather observations and forecasts of more than 4000 airports (METAR and TAF reports).

The available stations are represented by yellow and red dots on the map.

Hover mouse over dot to see the name of the station.

Then click to see weather observations and forecasts.

To change the map : click on the green buttons with a black cross to zoom in, on the green button with a dash to zoom out, or on the green arrows for adjacent maps.


METAR-TAF: